Greenville, Indiana
Current Conditions -  °F | °C
As of 10:56 PM on Friday 24 Oct 2014 (Local Time) from KSDF Reporting Station
Few Clouds Few Clouds  
Wind Chill: 54°   Ceiling: Unl
Heat Index: 54°   Visibility: 10mi
Dew Point: 47°   Wind: 12mph
Humidity: 77%   Direction: 150°SSE
Pressure: 30.05"   Gusts: NA
Location:  38.37°N, 85.99°W
Report Text: KSDF 250256Z 15010KT 10SM FEW250 12/08 A3005 RMK AO2 SLP178 T01220083 56001
Loading
Personal Weather Stations






























Interactive Weather Map
Tropical Storm Tracking
New forecast layout! Learn more

10-Day Weather Forecast

Advertisements
Track Severe Weather on mobile